Heiskell, Tennessee
Current Conditions -  °F | °C
As of 10:53 AM on Wednesday 28 Jan 2015 (Local Time) from KOQT Reporting Station
Clear Clear  
Wind Chill: 28°   Ceiling: Unl
Heat Index: 33°   Visibility: 10mi
Dew Point: 14°   Wind: 6mph
Humidity: 46%   Direction: 70°ENE
Pressure: 30.37"   Gusts: NA
Location:  36.08°N, 84.05°W
Report Text: KOQT 281553Z AUTO 07005KT 10SM CLR 01/M10 A3037 RMK AO2 SLP299 T00061100
Loading
Personal Weather Stations






























Interactive Weather Map New forecast layout! Learn more

10-Day Weather Forecast

Advertisements
Track Severe Weather on mobile